createdAt,value
2022-10-08T00:00:30.072Z,64.01
2022-10-08T00:01:31.751Z,63.92
2022-10-08T00:02:33.268Z,63.86
2022-10-08T00:03:35.660Z,63.95
2022-10-08T00:04:37.245Z,63.92
2022-10-08T00:05:38.772Z,63.92
2022-10-08T00:06:40.285Z,64.01
2022-10-08T00:07:44.300Z,64.19
2022-10-08T00:08:55.383Z,64.39
2022-10-08T00:09:56.873Z,64.39
2022-10-08T00:10:59.282Z,64.75
2022-10-08T00:12:00.818Z,64.88
2022-10-08T00:13:02.349Z,64.89
2022-10-08T00:14:03.929Z,64.79
2022-10-08T00:15:05.591Z,64.65
2022-10-08T00:16:08.159Z,64.55
2022-10-08T00:17:09.661Z,64.80
2022-10-08T00:18:11.317Z,64.86
2022-10-08T00:19:13.832Z,64.71
2022-10-08T00:20:15.348Z,64.80
2022-10-08T00:21:18.129Z,64.74
2022-10-08T00:22:19.714Z,64.74
2022-10-08T00:23:21.434Z,64.56
2022-10-08T00:24:23.782Z,64.54
2022-10-08T00:25:25.274Z,64.51
2022-10-08T00:26:27.125Z,64.64
2022-10-08T00:27:29.365Z,64.57
2022-10-08T00:28:30.853Z,64.43
2022-10-08T00:29:33.384Z,64.50
2022-10-08T00:30:38.161Z,64.41
2022-10-08T00:31:40.549Z,64.44
2022-10-08T00:32:42.163Z,64.39
2022-10-08T00:33:43.734Z,64.40
2022-10-08T00:34:45.542Z,64.48
2022-10-08T00:35:46.993Z,64.40
2022-10-08T00:36:50.422Z,64.35
2022-10-08T00:37:51.884Z,64.42
2022-10-08T00:38:56.763Z,64.50
2022-10-08T00:39:58.208Z,64.37
2022-10-08T00:41:00.167Z,64.23
2022-10-08T00:42:02.462Z,64.34
2022-10-08T00:43:03.934Z,64.46
2022-10-08T00:44:23.860Z,64.52
2022-10-08T00:45:25.476Z,64.36
2022-10-08T00:46:44.261Z,64.29
2022-10-08T00:47:46.632Z,64.22
2022-10-08T00:48:48.317Z,64.39
2022-10-08T00:49:51.135Z,64.43
2022-10-08T00:50:52.599Z,64.33
2022-10-08T00:51:54.642Z,64.24
2022-10-08T00:52:57.013Z,64.27
2022-10-08T00:53:58.730Z,64.30
2022-10-08T00:55:00.302Z,64.26
2022-10-08T00:56:02.528Z,64.13
2022-10-08T00:57:04.052Z,64.26
2022-10-08T00:58:07.579Z,64.25
2022-10-08T00:59:09.190Z,64.05
2022-10-08T01:00:12.362Z,64.10
2022-10-08T01:01:13.914Z,64.12
2022-10-08T01:02:15.906Z,64.10
2022-10-08T01:03:17.737Z,64.19
2022-10-08T01:04:19.174Z,64.19
2022-10-08T01:05:43.758Z,64.16
2022-10-08T01:06:56.826Z,64.27
2022-10-08T01:08:05.179Z,64.20
2022-10-08T01:09:11.081Z,64.02
2022-10-08T01:10:20.526Z,64.10
2022-10-08T01:11:28.167Z,64.10
2022-10-08T01:12:37.450Z,64.08
2022-10-08T01:13:38.968Z,64.05
2022-10-08T01:14:44.909Z,63.98
2022-10-08T01:15:49.267Z,64.00
2022-10-08T01:16:57.161Z,63.89
2022-10-08T01:18:07.632Z,63.93
2022-10-08T01:19:16.813Z,64.01
2022-10-08T01:20:18.407Z,64.07
2022-10-08T01:21:38.597Z,63.99
2022-10-08T01:22:58.814Z,63.95
2022-10-08T01:24:12.276Z,63.98
2022-10-08T01:25:32.368Z,64.01
2022-10-08T01:26:33.806Z,63.90
2022-10-08T01:27:38.383Z,63.99
2022-10-08T01:28:43.724Z,64.04
2022-10-08T01:29:45.864Z,63.92
2022-10-08T01:30:49.896Z,64.04
2022-10-08T01:31:55.108Z,63.82
2022-10-08T01:32:57.817Z,63.88
2022-10-08T01:34:00.347Z,63.95
2022-10-08T01:35:02.840Z,63.96
2022-10-08T01:36:05.159Z,63.91
2022-10-08T01:37:06.882Z,63.85
2022-10-08T01:38:08.359Z,63.90
2022-10-08T01:39:13.624Z,64.03
2022-10-08T01:40:16.980Z,64.00
2022-10-08T01:41:18.511Z,64.02
2022-10-08T01:42:20.054Z,63.95
2022-10-08T01:43:21.520Z,64.05
2022-10-08T01:44:33.722Z,64.00
2022-10-08T01:45:36.151Z,63.93
2022-10-08T01:46:37.792Z,64.01
2022-10-08T01:47:39.664Z,63.98
2022-10-08T01:48:41.142Z,64.25
2022-10-08T01:49:43.932Z,64.34
2022-10-08T01:50:47.837Z,64.28
2022-10-08T01:51:53.051Z,64.32
2022-10-08T01:52:55.239Z,64.16
2022-10-08T01:53:56.722Z,64.40
2022-10-08T01:54:59.476Z,64.25
2022-10-08T01:56:01.495Z,64.51
2022-10-08T01:57:02.995Z,64.36
2022-10-08T01:58:06.023Z,64.40
2022-10-08T01:59:07.511Z,64.48
2022-10-08T02:00:09.915Z,64.39
2022-10-08T02:01:16.088Z,64.55
2022-10-08T02:02:18.892Z,64.35
2022-10-08T02:03:20.376Z,64.34
2022-10-08T02:04:34.170Z,64.42
2022-10-08T02:05:35.692Z,64.35
2022-10-08T02:06:37.200Z,64.42
2022-10-08T02:07:42.449Z,64.61
2022-10-08T02:08:43.903Z,64.38
2022-10-08T02:09:45.942Z,64.55
2022-10-08T02:10:47.505Z,64.52
2022-10-08T02:11:48.957Z,64.54
2022-10-08T02:12:50.634Z,64.67
2022-10-08T02:13:52.353Z,64.56
2022-10-08T02:14:54.297Z,64.45
2022-10-08T02:15:55.808Z,64.63
2022-10-08T02:17:03.322Z,64.59
2022-10-08T02:18:11.354Z,64.61
2022-10-08T02:19:15.984Z,64.51
2022-10-08T02:20:32.427Z,64.43
2022-10-08T02:21:34.332Z,64.46
2022-10-08T02:22:36.715Z,64.31
2022-10-08T02:23:38.706Z,64.40
2022-10-08T02:24:40.855Z,64.48
2022-10-08T02:26:00.550Z,64.42
2022-10-08T02:27:03.894Z,64.12
2022-10-08T02:28:11.503Z,64.38
2022-10-08T02:29:24.970Z,64.13
2022-10-08T02:30:26.457Z,64.31
2022-10-08T02:31:36.830Z,64.37
2022-10-08T02:32:49.366Z,64.35
2022-10-08T02:34:02.179Z,64.26
2022-10-08T02:35:25.330Z,64.27
2022-10-08T02:36:28.150Z,64.41
2022-10-08T02:37:31.645Z,64.33
2022-10-08T02:38:38.111Z,64.31
2022-10-08T02:39:40.250Z,64.53
2022-10-08T02:40:42.727Z,64.41
2022-10-08T02:41:44.683Z,64.41
2022-10-08T02:42:50.069Z,64.56
2022-10-08T02:43:52.000Z,64.42
2022-10-08T02:44:55.253Z,64.55
2022-10-08T02:45:58.094Z,64.67
2022-10-08T02:47:00.402Z,64.49
2022-10-08T02:48:12.073Z,64.65
2022-10-08T02:49:18.132Z,64.50
2022-10-08T02:50:20.753Z,64.67
2022-10-08T02:51:22.210Z,64.68
2022-10-08T02:52:23.970Z,64.66
2022-10-08T02:53:25.710Z,64.66
2022-10-08T02:54:27.158Z,64.56
2022-10-08T02:55:47.114Z,64.52
2022-10-08T02:56:51.032Z,64.35
2022-10-08T02:57:57.996Z,64.43
2022-10-08T02:59:00.065Z,64.49
2022-10-08T03:00:01.632Z,64.34
2022-10-08T03:01:03.194Z,64.47
2022-10-08T03:02:05.417Z,64.25
2022-10-08T03:03:28.890Z,64.29
2022-10-08T03:04:31.896Z,64.37
2022-10-08T03:05:33.330Z,64.25
2022-10-08T03:06:35.958Z,64.14
2022-10-08T03:07:37.522Z,64.25
2022-10-08T03:08:41.118Z,64.20
2022-10-08T03:09:43.212Z,64.30
2022-10-08T03:10:44.690Z,64.26
2022-10-08T03:11:46.207Z,64.45
2022-10-08T03:12:47.888Z,64.36
2022-10-08T03:13:49.671Z,64.31
2022-10-08T03:14:52.381Z,64.90
2022-10-08T03:15:53.954Z,64.83
2022-10-08T03:16:55.499Z,64.85
2022-10-08T03:17:56.991Z,64.84
2022-10-08T03:18:59.197Z,64.85
2022-10-08T03:20:04.142Z,64.88
2022-10-08T03:21:07.050Z,64.87
2022-10-08T03:22:08.639Z,65.08
2022-10-08T03:23:10.117Z,64.88
2022-10-08T03:24:12.258Z,64.90
2022-10-08T03:25:13.765Z,64.89
2022-10-08T03:26:16.731Z,64.97
2022-10-08T03:27:18.175Z,64.84
2022-10-08T03:28:19.643Z,64.97
2022-10-08T03:29:21.653Z,64.91
2022-10-08T03:30:23.101Z,64.91
2022-10-08T03:31:24.547Z,64.91
2022-10-08T03:32:26.266Z,64.94
2022-10-08T03:33:27.686Z,64.82
2022-10-08T03:34:29.243Z,64.87
2022-10-08T03:35:30.723Z,64.69
2022-10-08T03:36:32.299Z,64.57
2022-10-08T03:37:33.748Z,64.29
2022-10-08T03:38:35.215Z,64.48
2022-10-08T03:39:36.707Z,64.46
2022-10-08T03:40:38.198Z,64.29
2022-10-08T03:41:39.701Z,64.22
2022-10-08T03:42:41.187Z,64.20
2022-10-08T03:43:42.668Z,64.05
2022-10-08T03:44:44.150Z,64.02
2022-10-08T03:45:51.790Z,63.92
2022-10-08T03:46:53.296Z,63.83
2022-10-08T03:47:54.756Z,63.63
2022-10-08T03:48:56.188Z,63.73
2022-10-08T03:49:57.688Z,63.54
2022-10-08T03:51:02.638Z,63.45
2022-10-08T03:52:04.141Z,63.47
2022-10-08T03:53:05.675Z,63.45
2022-10-08T03:54:07.138Z,63.38
2022-10-08T03:55:08.611Z,63.42
2022-10-08T03:56:17.029Z,63.58
2022-10-08T03:57:18.496Z,63.38
2022-10-08T03:58:20.401Z,63.42
2022-10-08T03:59:21.940Z,63.47
2022-10-08T04:00:23.383Z,63.49
2022-10-08T04:01:25.217Z,63.68
2022-10-08T04:02:26.910Z,63.98
2022-10-08T04:03:28.608Z,63.90
2022-10-08T04:04:30.110Z,64.08
2022-10-08T04:05:31.681Z,63.98
2022-10-08T04:06:33.177Z,64.00
2022-10-08T04:07:34.901Z,64.24
2022-10-08T04:08:36.420Z,64.24
2022-10-08T04:09:37.947Z,64.32
2022-10-08T04:10:39.427Z,64.41
2022-10-08T04:11:40.937Z,64.41
2022-10-08T04:12:42.506Z,64.45
2022-10-08T04:13:44.224Z,64.50
2022-10-08T04:14:45.711Z,64.33
2022-10-08T04:15:48.272Z,64.68
2022-10-08T04:16:49.871Z,64.50
2022-10-08T04:17:51.318Z,64.62
2022-10-08T04:18:52.767Z,64.70
2022-10-08T04:19:54.305Z,64.96
2022-10-08T04:20:59.093Z,65.24
2022-10-08T04:22:00.548Z,65.32
2022-10-08T04:23:02.030Z,65.72
2022-10-08T04:24:03.570Z,65.49
2022-10-08T04:25:05.222Z,65.58
2022-10-08T04:26:06.777Z,65.27
2022-10-08T04:27:08.343Z,65.47
2022-10-08T04:28:09.863Z,65.33
2022-10-08T04:29:12.594Z,65.17
2022-10-08T04:30:14.137Z,65.13
2022-10-08T04:31:19.266Z,65.12
2022-10-08T04:32:20.861Z,65.10
2022-10-08T04:33:22.365Z,65.53
2022-10-08T04:34:23.824Z,65.71
2022-10-08T04:35:25.312Z,65.50
2022-10-08T04:36:26.753Z,65.44
2022-10-08T04:37:28.233Z,65.42
2022-10-08T04:38:29.719Z,65.51
2022-10-08T04:39:31.149Z,65.34
2022-10-08T04:40:32.606Z,65.25
2022-10-08T04:41:34.072Z,65.12
2022-10-08T04:42:35.506Z,65.08
2022-10-08T04:43:37.289Z,64.97
2022-10-08T04:44:38.744Z,64.98
2022-10-08T04:45:43.911Z,64.99
2022-10-08T04:46:45.459Z,64.82
2022-10-08T04:47:46.993Z,64.81
2022-10-08T04:48:49.236Z,64.73
2022-10-08T04:49:50.738Z,64.79
2022-10-08T04:50:55.691Z,64.91
2022-10-08T04:51:57.121Z,64.79
2022-10-08T04:52:58.581Z,64.84
2022-10-08T04:54:00.083Z,64.64
2022-10-08T04:55:01.590Z,64.59
2022-10-08T04:56:19.050Z,64.75
2022-10-08T04:57:20.513Z,64.77
2022-10-08T04:58:22.251Z,64.59
2022-10-08T04:59:23.732Z,64.66
2022-10-08T05:00:25.262Z,64.56
2022-10-08T05:01:26.785Z,64.52
2022-10-08T05:02:28.456Z,64.58
2022-10-08T05:03:30.046Z,64.58
2022-10-08T05:04:31.501Z,64.40
2022-10-08T05:05:32.979Z,64.50
2022-10-08T05:06:34.891Z,64.54
2022-10-08T05:07:36.567Z,64.45
2022-10-08T05:08:38.030Z,64.34
2022-10-08T05:09:39.475Z,64.32
2022-10-08T05:10:47.294Z,64.33
2022-10-08T05:11:49.850Z,64.35
2022-10-08T05:12:51.308Z,64.40
2022-10-08T05:13:53.223Z,64.38
2022-10-08T05:14:54.698Z,64.42
2022-10-08T05:15:56.180Z,64.28
2022-10-08T05:16:57.748Z,64.23
2022-10-08T05:17:59.191Z,64.31
2022-10-08T05:19:00.698Z,64.29
2022-10-08T05:20:02.524Z,64.17
2022-10-08T05:21:08.012Z,64.11
2022-10-08T05:22:09.486Z,64.19
2022-10-08T05:23:10.949Z,64.20
2022-10-08T05:24:12.432Z,64.15
2022-10-08T05:25:13.937Z,64.14
2022-10-08T05:26:15.832Z,64.09
2022-10-08T05:27:17.297Z,64.01
2022-10-08T05:28:18.767Z,63.91
2022-10-08T05:29:20.483Z,63.92
2022-10-08T05:30:22.219Z,63.93
2022-10-08T05:31:24.077Z,63.87
2022-10-08T05:32:25.667Z,64.02
2022-10-08T05:33:27.169Z,64.11
2022-10-08T05:34:28.617Z,64.10
2022-10-08T05:35:30.070Z,63.94
2022-10-08T05:36:31.830Z,64.23
2022-10-08T05:37:33.419Z,64.07
2022-10-08T05:38:35.449Z,64.26
2022-10-08T05:39:36.959Z,64.24
2022-10-08T05:40:38.413Z,64.21
2022-10-08T05:41:40.340Z,64.17
2022-10-08T05:42:41.806Z,64.18
2022-10-08T05:43:43.313Z,64.26
2022-10-08T05:44:45.593Z,64.30
2022-10-08T05:45:50.864Z,64.32
2022-10-08T05:46:52.435Z,64.45
2022-10-08T05:47:54.079Z,64.27
2022-10-08T05:48:55.868Z,64.39
2022-10-08T05:49:57.319Z,64.33
2022-10-08T05:51:08.613Z,64.44
2022-10-08T05:52:10.204Z,64.42
2022-10-08T05:53:11.745Z,64.36
2022-10-08T05:54:13.338Z,64.35
2022-10-08T05:55:14.818Z,64.47
2022-10-08T05:56:17.388Z,64.38
2022-10-08T05:57:18.829Z,64.30
2022-10-08T05:58:20.321Z,64.45
2022-10-08T05:59:22.602Z,64.69
2022-10-08T06:00:24.043Z,64.70
2022-10-08T06:01:29.378Z,64.68
2022-10-08T06:02:31.133Z,64.72
2022-10-08T06:03:32.656Z,64.65
2022-10-08T06:04:34.122Z,64.75
2022-10-08T06:05:35.676Z,64.99
2022-10-08T06:06:37.505Z,64.97
2022-10-08T06:07:38.948Z,65.22
2022-10-08T06:08:41.351Z,65.38
2022-10-08T06:09:44.979Z,65.40
2022-10-08T06:10:52.383Z,65.47
2022-10-08T06:11:53.879Z,65.38
2022-10-08T06:12:55.331Z,65.41
2022-10-08T06:13:57.198Z,65.47
2022-10-08T06:14:58.691Z,65.38
2022-10-08T06:16:01.018Z,65.28
2022-10-08T06:17:02.507Z,65.32
2022-10-08T06:18:04.053Z,65.42
2022-10-08T06:19:05.600Z,65.44
2022-10-08T06:20:07.375Z,65.42
2022-10-08T06:21:15.783Z,65.42
2022-10-08T06:22:17.395Z,65.38
2022-10-08T06:23:19.046Z,65.29
2022-10-08T06:24:21.595Z,65.36
2022-10-08T06:25:23.073Z,65.32
2022-10-08T06:26:26.852Z,65.50
2022-10-08T06:27:30.131Z,65.40
2022-10-08T06:28:32.375Z,65.69
2022-10-08T06:29:33.935Z,65.69
2022-10-08T06:30:35.777Z,65.64
2022-10-08T06:31:37.414Z,65.76
2022-10-08T06:32:38.899Z,65.82
2022-10-08T06:33:40.403Z,65.88
2022-10-08T06:34:42.129Z,65.90
2022-10-08T06:35:43.630Z,65.93
2022-10-08T06:36:45.157Z,65.94
2022-10-08T06:37:49.463Z,66.05
2022-10-08T06:38:51.420Z,66.01
2022-10-08T06:39:52.923Z,65.83
2022-10-08T06:40:56.744Z,65.88
2022-10-08T06:41:58.228Z,65.90
2022-10-08T06:43:07.616Z,65.92
2022-10-08T06:44:10.426Z,66.07
2022-10-08T06:45:11.924Z,66.06
2022-10-08T06:46:13.527Z,66.34
2022-10-08T06:47:14.978Z,66.38
2022-10-08T06:48:16.476Z,66.42
2022-10-08T06:49:18.349Z,65.78
2022-10-08T06:50:19.788Z,65.77
2022-10-08T06:51:21.295Z,65.86
2022-10-08T06:52:22.726Z,65.67
2022-10-08T06:53:24.236Z,65.52
2022-10-08T06:54:27.399Z,65.52
2022-10-08T06:55:28.841Z,65.37
2022-10-08T06:56:30.347Z,65.29
2022-10-08T06:57:31.864Z,65.39
2022-10-08T06:58:36.496Z,65.31
2022-10-08T06:59:41.158Z,64.99
2022-10-08T07:00:42.740Z,65.12
2022-10-08T07:01:44.363Z,65.39
2022-10-08T07:02:46.098Z,65.40
2022-10-08T07:03:51.032Z,65.54
2022-10-08T07:04:52.544Z,66.00
2022-10-08T07:05:54.011Z,65.67
2022-10-08T07:06:55.479Z,66.00
2022-10-08T07:07:56.925Z,65.26
2022-10-08T07:09:02.806Z,65.44
2022-10-08T07:10:07.282Z,64.47
2022-10-08T07:11:17.913Z,64.32
2022-10-08T07:12:19.362Z,64.04
2022-10-08T07:13:21.035Z,63.73
2022-10-08T07:14:22.501Z,63.39
2022-10-08T07:15:24.000Z,62.58
2022-10-08T07:16:26.124Z,61.63
2022-10-08T07:17:28.734Z,61.49
2022-10-08T07:18:30.826Z,61.48
2022-10-08T07:19:32.285Z,61.67
2022-10-08T07:20:33.823Z,60.83
2022-10-08T07:21:35.258Z,60.73
2022-10-08T07:22:36.729Z,61.17
2022-10-08T07:23:38.255Z,60.50
2022-10-08T07:24:39.774Z,59.47
2022-10-08T07:25:41.234Z,58.80
2022-10-08T07:26:42.896Z,58.83
2022-10-08T07:27:45.129Z,57.64
2022-10-08T07:28:53.746Z,57.58
2022-10-08T07:29:55.192Z,57.46
2022-10-08T07:30:56.626Z,57.92
2022-10-08T07:31:58.123Z,57.74
2022-10-08T07:33:00.647Z,57.52
2022-10-08T07:34:02.925Z,57.42
2022-10-08T07:35:04.809Z,57.26
2022-10-08T07:36:16.613Z,57.35
2022-10-08T07:37:18.061Z,57.25
2022-10-08T07:38:19.736Z,57.15
2022-10-08T07:39:21.869Z,57.23
2022-10-08T07:40:23.447Z,57.43
2022-10-08T07:41:25.005Z,57.57
2022-10-08T07:42:26.788Z,58.01
2022-10-08T07:43:28.294Z,57.82
2022-10-08T07:44:29.787Z,57.53
2022-10-08T07:45:31.536Z,57.41
2022-10-08T07:46:33.604Z,57.54
2022-10-08T07:47:35.138Z,57.02
2022-10-08T07:48:36.742Z,57.50
2022-10-08T07:49:38.223Z,56.88
2022-10-08T07:50:39.711Z,56.38
2022-10-08T07:51:44.280Z,55.97
2022-10-08T07:52:45.970Z,55.81
2022-10-08T07:53:47.648Z,53.85
2022-10-08T07:54:49.119Z,54.53
2022-10-08T07:55:50.624Z,53.53
2022-10-08T07:56:52.067Z,53.04
2022-10-08T07:57:54.176Z,52.15
2022-10-08T07:58:55.713Z,52.19
2022-10-08T07:59:57.383Z,52.12
2022-10-08T08:00:59.423Z,51.99
2022-10-08T08:02:01.037Z,51.39
2022-10-08T08:03:02.530Z,50.97
2022-10-08T08:04:04.827Z,50.95
2022-10-08T08:05:06.568Z,50.05
2022-10-08T08:06:12.235Z,49.72
2022-10-08T08:07:13.723Z,49.11
2022-10-08T08:08:15.279Z,48.94
2022-10-08T08:09:18.188Z,48.36
2022-10-08T08:10:19.694Z,49.26
2022-10-08T08:11:21.978Z,48.54
2022-10-08T08:12:23.436Z,47.99
2022-10-08T08:13:24.972Z,46.99
2022-10-08T08:14:26.492Z,48.16
2022-10-08T08:15:27.962Z,47.11
2022-10-08T08:16:29.698Z,46.52
2022-10-08T08:17:31.200Z,46.36
2022-10-08T08:18:33.397Z,46.72
2022-10-08T08:19:36.957Z,46.76
2022-10-08T08:20:38.629Z,45.01
2022-10-08T08:21:40.165Z,45.37
2022-10-08T08:22:42.304Z,45.50
2022-10-08T08:23:44.566Z,45.22
2022-10-08T08:24:46.176Z,44.42
2022-10-08T08:25:47.701Z,44.41
2022-10-08T08:26:49.149Z,44.84
2022-10-08T08:27:50.613Z,44.66
2022-10-08T08:28:53.070Z,44.34
2022-10-08T08:29:54.526Z,44.91
2022-10-08T08:31:12.120Z,45.06
2022-10-08T08:32:15.647Z,45.40
2022-10-08T08:33:17.265Z,45.65
2022-10-08T08:34:21.915Z,45.75
2022-10-08T08:35:23.360Z,45.43
2022-10-08T08:36:27.043Z,45.32
2022-10-08T08:37:37.090Z,45.01
2022-10-08T08:38:39.609Z,45.02
2022-10-08T08:39:41.159Z,44.22
2022-10-08T08:40:42.638Z,44.57
2022-10-08T08:41:56.679Z,44.30
2022-10-08T08:42:58.273Z,43.86
2022-10-08T08:44:00.104Z,43.74
2022-10-08T08:45:01.979Z,43.38
2022-10-08T08:46:03.505Z,43.10
2022-10-08T08:47:05.132Z,43.10
2022-10-08T08:48:20.091Z,42.70
2022-10-08T08:49:24.043Z,42.51
2022-10-08T08:50:27.816Z,41.83
2022-10-08T08:51:29.324Z,41.77
2022-10-08T08:52:33.854Z,41.23
2022-10-08T08:53:35.374Z,41.90
2022-10-08T08:54:36.859Z,42.25
2022-10-08T08:55:45.261Z,41.67
2022-10-08T08:56:47.042Z,41.65
2022-10-08T08:57:56.006Z,40.98
2022-10-08T08:59:00.746Z,41.02
2022-10-08T09:00:22.224Z,40.59
2022-10-08T09:01:25.404Z,40.73
2022-10-08T09:02:28.526Z,41.46
2022-10-08T09:03:30.391Z,41.10
2022-10-08T09:04:31.814Z,40.98
2022-10-08T09:05:34.415Z,40.77
2022-10-08T09:06:35.979Z,41.16
2022-10-08T09:07:45.707Z,41.28
2022-10-08T09:08:49.888Z,42.02
2022-10-08T09:09:51.832Z,41.52
2022-10-08T09:11:02.910Z,42.34
2022-10-08T09:12:16.451Z,41.50
2022-10-08T09:13:21.215Z,41.29
2022-10-08T09:14:27.848Z,41.10
2022-10-08T09:15:31.219Z,39.97
2022-10-08T09:16:32.772Z,40.38
2022-10-08T09:17:35.596Z,40.24
2022-10-08T09:18:37.156Z,40.71
2022-10-08T09:19:38.889Z,39.58
2022-10-08T09:20:40.589Z,39.00
2022-10-08T09:21:42.135Z,39.14
2022-10-08T09:22:46.151Z,39.47
2022-10-08T09:23:47.932Z,39.63
2022-10-08T09:24:54.647Z,39.44
2022-10-08T09:26:00.623Z,38.82
2022-10-08T09:27:06.239Z,38.29
2022-10-08T09:28:08.173Z,37.88
2022-10-08T09:29:16.489Z,38.22
2022-10-08T09:30:24.144Z,38.48
2022-10-08T09:31:42.523Z,38.14
2022-10-08T09:32:44.114Z,38.17
2022-10-08T09:33:46.355Z,38.01
2022-10-08T09:34:48.425Z,38.25
2022-10-08T09:35:52.763Z,38.04
2022-10-08T09:36:54.247Z,38.04
2022-10-08T09:37:56.691Z,38.11
2022-10-08T09:38:58.564Z,37.26
2022-10-08T09:40:08.402Z,37.64
2022-10-08T09:41:18.809Z,37.45
2022-10-08T09:42:20.526Z,37.51
2022-10-08T09:43:22.481Z,37.56
2022-10-08T09:44:24.218Z,37.99
2022-10-08T09:45:38.643Z,38.06
2022-10-08T09:46:40.196Z,38.81
2022-10-08T09:47:41.634Z,39.00
2022-10-08T09:48:45.820Z,38.63
2022-10-08T09:49:50.020Z,39.13
2022-10-08T09:50:59.448Z,39.24
2022-10-08T09:52:02.337Z,38.57
2022-10-08T09:53:03.839Z,38.52
2022-10-08T09:54:05.350Z,38.46
2022-10-08T09:55:09.487Z,38.85
2022-10-08T09:56:10.980Z,38.55
2022-10-08T09:57:13.776Z,38.81
2022-10-08T09:58:16.160Z,38.63
2022-10-08T09:59:17.909Z,38.66
2022-10-08T10:00:27.021Z,38.66
2022-10-08T10:01:31.733Z,38.86
2022-10-08T10:02:34.320Z,39.02
2022-10-08T10:03:36.548Z,38.75
2022-10-08T10:04:38.404Z,38.27
2022-10-08T10:05:39.846Z,38.37
2022-10-08T10:06:41.300Z,38.24
2022-10-08T10:07:43.473Z,38.62
2022-10-08T10:08:48.511Z,38.96
2022-10-08T10:09:53.781Z,39.23
2022-10-08T10:10:55.217Z,39.52
2022-10-08T10:11:56.654Z,39.15
2022-10-08T10:13:02.748Z,39.49
2022-10-08T10:14:05.987Z,39.68
2022-10-08T10:15:21.278Z,40.00
2022-10-08T10:16:24.419Z,40.19
2022-10-08T10:17:44.678Z,40.12
2022-10-08T10:18:46.132Z,40.49
2022-10-08T10:19:49.968Z,40.63
2022-10-08T10:20:58.553Z,40.85
2022-10-08T10:22:03.078Z,40.62
2022-10-08T10:23:10.451Z,40.95
2022-10-08T10:24:21.142Z,40.96
2022-10-08T10:25:25.738Z,41.55
2022-10-08T10:26:28.508Z,41.06
2022-10-08T10:27:37.189Z,41.07
2022-10-08T10:28:40.719Z,41.10
2022-10-08T10:30:00.859Z,41.27
2022-10-08T10:31:05.318Z,41.13
2022-10-08T10:32:09.263Z,41.47
2022-10-08T10:33:12.263Z,41.57
2022-10-08T10:34:15.716Z,41.51
2022-10-08T10:35:17.692Z,41.63
2022-10-08T10:36:20.468Z,41.40
2022-10-08T10:37:27.383Z,41.11
2022-10-08T10:38:29.436Z,41.06
2022-10-08T10:39:30.966Z,40.39
2022-10-08T10:40:32.431Z,41.16
2022-10-08T10:41:43.431Z,41.41
2022-10-08T10:42:57.051Z,41.15
2022-10-08T10:44:02.967Z,40.76
2022-10-08T10:45:09.791Z,41.07
2022-10-08T10:46:25.060Z,40.43
2022-10-08T10:47:32.265Z,40.26
2022-10-08T10:48:33.948Z,40.40
2022-10-08T10:49:35.962Z,40.17
2022-10-08T10:50:38.548Z,40.07
2022-10-08T10:51:58.745Z,40.04
2022-10-08T10:53:00.235Z,39.83
2022-10-08T10:54:10.453Z,39.64
2022-10-08T10:55:11.902Z,39.95
2022-10-08T10:56:19.430Z,39.81
2022-10-08T10:57:20.883Z,40.28
2022-10-08T10:58:24.975Z,40.50
2022-10-08T10:59:45.155Z,40.64
2022-10-08T11:01:04.812Z,40.95
2022-10-08T11:02:11.325Z,41.21
2022-10-08T11:03:21.737Z,41.58
2022-10-08T11:04:31.382Z,41.61
2022-10-08T11:05:33.095Z,41.88
2022-10-08T11:06:34.518Z,41.73
2022-10-08T11:07:54.771Z,42.13
2022-10-08T11:09:15.138Z,42.33
2022-10-08T11:10:48.994Z,42.48
2022-10-08T11:11:52.327Z,42.60
2022-10-08T11:13:12.308Z,42.88
2022-10-08T11:14:32.561Z,42.64
2022-10-08T11:15:49.268Z,42.95
2022-10-08T11:17:02.833Z,43.01
2022-10-08T11:18:07.131Z,43.46
2022-10-08T11:19:37.900Z,43.28
2022-10-08T11:20:48.127Z,43.10
2022-10-08T11:21:49.540Z,43.33
2022-10-08T11:22:54.883Z,43.60
2022-10-08T11:23:58.186Z,43.73
2022-10-08T11:25:02.802Z,43.94
2022-10-08T11:26:23.612Z,44.00
2022-10-08T11:27:25.179Z,43.96
2022-10-08T11:28:26.687Z,44.09
2022-10-08T11:29:37.564Z,44.14
2022-10-08T11:30:48.293Z,43.72
2022-10-08T11:31:50.290Z,43.88
2022-10-08T11:32:52.515Z,44.19
2022-10-08T11:33:54.542Z,44.51
2022-10-08T11:35:05.098Z,44.76
2022-10-08T11:36:29.271Z,44.59
2022-10-08T11:38:07.957Z,44.68
2022-10-08T11:39:20.266Z,44.53
2022-10-08T11:40:37.776Z,44.34
2022-10-08T11:41:47.850Z,44.43
2022-10-08T11:42:52.770Z,44.91
2022-10-08T11:43:55.244Z,44.69
2022-10-08T11:45:15.912Z,44.84
2022-10-08T11:46:22.793Z,44.96
2022-10-08T11:47:36.553Z,44.82
2022-10-08T11:48:38.542Z,44.76
2022-10-08T11:49:40.077Z,44.88
2022-10-08T11:50:41.841Z,44.88
2022-10-08T11:51:44.890Z,44.99
2022-10-08T11:52:46.952Z,45.11
2022-10-08T11:54:07.757Z,44.84
2022-10-08T11:55:15.798Z,44.84
2022-10-08T11:56:18.736Z,44.58
2022-10-08T11:57:21.122Z,44.47
2022-10-08T11:58:23.894Z,44.59
2022-10-08T11:59:29.970Z,44.42
2022-10-08T12:00:43.794Z,44.62
2022-10-08T12:01:51.568Z,44.11
2022-10-08T12:02:53.699Z,44.47
2022-10-08T12:04:05.113Z,44.48
2022-10-08T12:05:16.920Z,44.38
2022-10-08T12:06:19.083Z,44.52
2022-10-08T12:07:23.091Z,44.23
2022-10-08T12:08:43.416Z,44.40
2022-10-08T12:10:00.160Z,45.04
2022-10-08T12:11:20.391Z,45.06
2022-10-08T12:12:21.877Z,44.62
2022-10-08T12:13:24.461Z,44.83
2022-10-08T12:14:26.334Z,44.43
2022-10-08T12:15:27.941Z,44.60
2022-10-08T12:16:55.955Z,44.32
2022-10-08T12:17:57.407Z,43.93
2022-10-08T12:18:59.043Z,43.88
2022-10-08T12:20:01.287Z,44.04
2022-10-08T12:21:18.043Z,44.06
2022-10-08T12:22:25.056Z,44.03
2022-10-08T12:23:29.248Z,44.02
2022-10-08T12:24:36.935Z,44.21
2022-10-08T12:25:44.463Z,44.13
2022-10-08T12:27:04.724Z,43.87
2022-10-08T12:28:21.634Z,44.01
2022-10-08T12:29:40.187Z,43.74
2022-10-08T12:30:51.251Z,43.59
2022-10-08T12:32:00.462Z,43.78
2022-10-08T12:33:01.980Z,44.23
2022-10-08T12:34:18.985Z,44.11
2022-10-08T12:35:23.120Z,44.01
2022-10-08T12:36:36.423Z,44.35
2022-10-08T12:37:43.975Z,44.24
2022-10-08T12:38:53.731Z,43.97
2022-10-08T12:39:55.199Z,44.25
2022-10-08T12:40:58.433Z,44.06
2022-10-08T12:42:03.275Z,44.30
2022-10-08T12:43:10.333Z,44.28
2022-10-08T12:44:30.367Z,44.32
2022-10-08T12:45:34.550Z,44.41
2022-10-08T12:46:41.765Z,45.23
2022-10-08T12:47:58.875Z,45.12
2022-10-08T12:49:20.821Z,45.45
2022-10-08T12:50:41.065Z,45.36
2022-10-08T12:51:54.502Z,45.48
2022-10-08T12:52:56.455Z,45.52
2022-10-08T12:53:58.296Z,45.80
2022-10-08T12:54:59.842Z,45.70
2022-10-08T12:56:01.293Z,44.75
2022-10-08T12:57:07.059Z,44.85
2022-10-08T12:58:11.007Z,44.15
2022-10-08T12:59:12.526Z,45.11
2022-10-08T13:00:23.622Z,45.54
2022-10-08T13:01:25.254Z,45.22
2022-10-08T13:02:47.065Z,45.20
2022-10-08T13:04:02.371Z,45.66
2022-10-08T13:05:04.815Z,45.67
2022-10-08T13:06:16.586Z,45.28
2022-10-08T13:07:18.770Z,45.15
2022-10-08T13:08:29.030Z,44.78
2022-10-08T13:09:31.220Z,44.23
2022-10-08T13:10:32.810Z,44.74
2022-10-08T13:11:34.624Z,44.81
2022-10-08T13:12:36.108Z,44.70
2022-10-08T13:13:40.789Z,44.48
2022-10-08T13:14:42.344Z,44.29
2022-10-08T13:15:45.066Z,43.63
2022-10-08T13:16:47.271Z,43.20
2022-10-08T13:17:49.487Z,43.58
2022-10-08T13:18:57.319Z,43.58
2022-10-08T13:20:28.289Z,43.24
2022-10-08T13:21:32.303Z,43.05
2022-10-08T13:22:33.870Z,43.16
2022-10-08T13:23:36.128Z,43.14
2022-10-08T13:24:38.903Z,43.24
2022-10-08T13:25:43.467Z,43.03
2022-10-08T13:26:45.469Z,43.21
2022-10-08T13:27:47.224Z,43.28
2022-10-08T13:29:00.148Z,43.26
2022-10-08T13:30:20.652Z,43.24
2022-10-08T13:31:23.022Z,43.38
2022-10-08T13:32:25.882Z,43.40
2022-10-08T13:33:30.405Z,43.05
2022-10-08T13:34:33.381Z,43.26
2022-10-08T13:35:35.649Z,43.67
2022-10-08T13:36:38.115Z,43.79
2022-10-08T13:37:39.930Z,43.62
2022-10-08T13:38:41.374Z,43.30
2022-10-08T13:39:52.274Z,43.61
2022-10-08T13:40:55.444Z,43.82
2022-10-08T13:41:57.781Z,43.80
2022-10-08T13:42:59.482Z,43.59
2022-10-08T13:44:06.315Z,43.90
2022-10-08T13:45:13.117Z,43.46
2022-10-08T13:46:15.253Z,42.68
2022-10-08T13:47:17.530Z,41.73
2022-10-08T13:48:18.960Z,41.29
2022-10-08T13:49:21.663Z,41.59